createdAt,value
2022-08-30T00:01:03.610Z,2.90
2022-08-30T00:02:08.824Z,2.88
2022-08-30T00:03:16.148Z,1.75
2022-08-30T00:04:21.570Z,2.65
2022-08-30T00:05:27.083Z,3.38
2022-08-30T00:06:32.830Z,2.58
2022-08-30T00:07:37.363Z,2.42
2022-08-30T00:08:45.234Z,2.47
2022-08-30T00:09:55.932Z,2.50
2022-08-30T00:11:12.008Z,3.00
2022-08-30T00:12:16.903Z,2.65
2022-08-30T00:13:31.688Z,2.83
2022-08-30T00:14:38.043Z,3.45
2022-08-30T00:15:44.616Z,3.42
2022-08-30T00:16:50.310Z,3.53
2022-08-30T00:17:56.140Z,2.35
2022-08-30T00:19:02.697Z,2.42
2022-08-30T00:20:13.757Z,2.78
2022-08-30T00:21:18.404Z,2.28
2022-08-30T00:22:34.678Z,2.80
2022-08-30T00:24:00.689Z,2.75
2022-08-30T00:25:10.442Z,3.30
2022-08-30T00:26:18.112Z,2.38
2022-08-30T00:27:26.019Z,2.67
2022-08-30T00:28:34.455Z,3.25
2022-08-30T00:29:41.366Z,2.88
2022-08-30T00:30:50.732Z,2.78
2022-08-30T00:31:55.705Z,2.38
2022-08-30T00:33:00.739Z,2.75
2022-08-30T00:34:05.672Z,3.00
2022-08-30T00:35:14.733Z,3.55
2022-08-30T00:36:19.139Z,2.65
2022-08-30T00:37:24.029Z,2.67
2022-08-30T00:38:29.257Z,3.60
2022-08-30T00:39:33.803Z,3.65
2022-08-30T00:40:44.855Z,2.75
2022-08-30T00:41:52.311Z,3.63
2022-08-30T00:43:02.189Z,3.15
2022-08-30T00:44:10.692Z,3.20
2022-08-30T00:45:30.221Z,3.00
2022-08-30T00:46:36.672Z,3.70
2022-08-30T00:47:42.218Z,2.63
2022-08-30T00:48:51.817Z,3.47
2022-08-30T00:50:00.662Z,3.67
2022-08-30T00:51:10.342Z,3.85
2022-08-30T00:52:18.614Z,3.85
2022-08-30T00:53:34.714Z,2.47
2022-08-30T00:54:45.438Z,4.68
2022-08-30T00:56:07.700Z,2.45
2022-08-30T00:57:15.062Z,3.58
2022-08-30T00:58:34.804Z,3.85
2022-08-30T00:59:44.479Z,3.30
2022-08-30T01:00:55.380Z,3.08
2022-08-30T01:02:07.324Z,3.10
2022-08-30T01:03:13.017Z,3.88
2022-08-30T01:04:25.798Z,3.72
2022-08-30T01:05:33.665Z,3.92
2022-08-30T01:06:40.350Z,3.55
2022-08-30T01:07:45.953Z,3.55
2022-08-30T01:08:50.564Z,3.17
2022-08-30T01:09:56.214Z,3.42
2022-08-30T01:11:02.367Z,3.30
2022-08-30T01:12:11.490Z,3.15
2022-08-30T01:13:31.577Z,3.60
2022-08-30T01:14:36.078Z,3.25
2022-08-30T01:15:46.448Z,3.60
2022-08-30T01:16:57.976Z,3.70
2022-08-30T01:18:07.915Z,4.25
2022-08-30T01:19:41.627Z,3.58
2022-08-30T01:21:00.707Z,3.03
2022-08-30T01:22:38.545Z,3.33
2022-08-30T01:23:51.438Z,3.28
2022-08-30T01:25:02.248Z,3.88
2022-08-30T01:26:10.152Z,2.92
2022-08-30T01:27:22.788Z,4.10
2022-08-30T01:28:36.565Z,3.25
2022-08-30T01:29:46.323Z,4.25
2022-08-30T01:30:55.586Z,3.85
2022-08-30T01:32:09.242Z,4.82
2022-08-30T01:33:14.077Z,3.17
2022-08-30T01:34:22.609Z,2.88
2022-08-30T01:35:29.989Z,3.40
2022-08-30T01:36:46.777Z,3.00
2022-08-30T01:37:51.755Z,3.20
2022-08-30T01:38:58.905Z,3.75
2022-08-30T01:40:04.910Z,3.08
2022-08-30T01:41:27.969Z,3.42
2022-08-30T01:42:32.656Z,2.90
2022-08-30T01:43:37.192Z,3.58
2022-08-30T01:44:42.411Z,3.85
2022-08-30T01:45:46.978Z,3.33
2022-08-30T01:46:54.943Z,3.13
2022-08-30T01:48:03.715Z,3.58
2022-08-30T01:49:16.741Z,3.05
2022-08-30T01:50:25.443Z,3.42
2022-08-30T01:51:33.194Z,3.17
2022-08-30T01:52:42.280Z,3.42
2022-08-30T01:53:46.832Z,3.60
2022-08-30T01:54:54.246Z,3.45
2022-08-30T01:55:58.796Z,3.17
2022-08-30T01:57:05.874Z,3.88
2022-08-30T01:58:13.235Z,4.25
2022-08-30T01:59:18.496Z,3.55
2022-08-30T02:00:23.747Z,2.72
2022-08-30T02:01:30.925Z,3.45
2022-08-30T02:02:41.308Z,3.67
2022-08-30T02:03:47.787Z,3.65
2022-08-30T02:04:55.579Z,3.78
2022-08-30T02:06:10.522Z,3.13
2022-08-30T02:07:16.968Z,4.97
2022-08-30T02:08:21.773Z,2.85
2022-08-30T02:09:27.330Z,3.10
2022-08-30T02:10:34.097Z,2.90
2022-08-30T02:11:39.012Z,3.50
2022-08-30T02:12:43.837Z,3.40
2022-08-30T02:13:48.047Z,3.88
2022-08-30T02:14:53.166Z,3.05
2022-08-30T02:16:01.610Z,3.17
2022-08-30T02:17:10.378Z,2.97
2022-08-30T02:18:17.602Z,3.05
2022-08-30T02:19:21.874Z,3.58
2022-08-30T02:20:28.565Z,3.05
2022-08-30T02:21:32.727Z,3.65
2022-08-30T02:22:49.310Z,4.47
2022-08-30T02:23:55.912Z,3.50
2022-08-30T02:25:04.278Z,3.03
2022-08-30T02:26:11.156Z,3.80
2022-08-30T02:27:17.702Z,2.85
2022-08-30T02:28:23.024Z,2.92
2022-08-30T02:29:29.942Z,2.30
2022-08-30T02:30:34.831Z,3.75
2022-08-30T02:31:39.287Z,3.40
2022-08-30T02:32:54.551Z,3.17
2022-08-30T02:34:02.162Z,2.53
2022-08-30T02:35:14.761Z,2.80
2022-08-30T02:36:21.985Z,2.88
2022-08-30T02:37:28.553Z,4.10
2022-08-30T02:38:32.644Z,3.25
2022-08-30T02:39:37.581Z,3.05
2022-08-30T02:40:42.256Z,3.30
2022-08-30T02:41:53.740Z,2.97
2022-08-30T02:42:59.941Z,2.92
2022-08-30T02:44:05.981Z,3.05
2022-08-30T02:45:12.215Z,3.28
2022-08-30T02:46:21.322Z,2.65
2022-08-30T02:47:29.474Z,2.97
2022-08-30T02:48:34.518Z,3.20
2022-08-30T02:49:38.586Z,3.53
2022-08-30T02:50:48.282Z,3.65
2022-08-30T02:51:54.336Z,2.75
2022-08-30T02:52:59.135Z,4.00
2022-08-30T02:54:06.744Z,2.88
2022-08-30T02:55:12.047Z,3.33
2022-08-30T02:56:16.520Z,2.78
2022-08-30T02:57:23.709Z,4.60
2022-08-30T02:58:28.112Z,3.47
2022-08-30T02:59:40.064Z,2.38
2022-08-30T03:00:45.057Z,3.83
2022-08-30T03:01:50.294Z,2.83
2022-08-30T03:02:58.535Z,3.25
2022-08-30T03:04:03.174Z,3.83
2022-08-30T03:05:16.154Z,3.22
2022-08-30T03:06:24.976Z,2.95
2022-08-30T03:07:30.284Z,3.22
2022-08-30T03:08:34.831Z,3.20
2022-08-30T03:09:39.963Z,2.85
2022-08-30T03:10:46.220Z,3.05
2022-08-30T03:11:54.074Z,4.05
2022-08-30T03:12:59.383Z,3.67
2022-08-30T03:14:04.665Z,3.13
2022-08-30T03:15:13.490Z,3.38
2022-08-30T03:16:21.987Z,3.00
2022-08-30T03:17:28.121Z,3.65
2022-08-30T03:18:35.014Z,3.35
2022-08-30T03:19:39.005Z,4.20
2022-08-30T03:20:44.041Z,3.47
2022-08-30T03:21:59.555Z,4.07
2022-08-30T03:23:06.841Z,2.70
2022-08-30T03:24:11.611Z,3.40
2022-08-30T03:25:17.597Z,2.97
2022-08-30T03:26:24.546Z,3.28
2022-08-30T03:27:30.050Z,3.30
2022-08-30T03:28:35.469Z,3.00
2022-08-30T03:29:40.517Z,3.72
2022-08-30T03:30:47.260Z,3.08
2022-08-30T03:31:53.894Z,5.05
2022-08-30T03:33:00.581Z,4.15
2022-08-30T03:34:06.344Z,3.00
2022-08-30T03:35:13.249Z,3.30
2022-08-30T03:36:20.292Z,3.67
2022-08-30T03:37:27.539Z,3.20
2022-08-30T03:38:37.728Z,3.33
2022-08-30T03:39:45.905Z,5.40
2022-08-30T03:40:52.881Z,4.05
2022-08-30T03:42:03.378Z,3.38
2022-08-30T03:43:10.655Z,3.88
2022-08-30T03:44:18.087Z,4.07
2022-08-30T03:45:23.912Z,3.30
2022-08-30T03:46:34.470Z,3.45
2022-08-30T03:47:45.143Z,3.50
2022-08-30T03:48:49.712Z,3.72
2022-08-30T03:49:55.603Z,3.17
2022-08-30T03:51:00.470Z,4.05
2022-08-30T03:52:06.022Z,3.75
2022-08-30T03:53:12.236Z,3.10
2022-08-30T03:54:17.648Z,2.88
2022-08-30T03:55:23.056Z,3.72
2022-08-30T03:56:28.932Z,3.47
2022-08-30T03:57:34.051Z,3.35
2022-08-30T03:58:41.334Z,4.25
2022-08-30T03:59:48.813Z,3.42
2022-08-30T04:00:56.681Z,3.38
2022-08-30T04:02:02.104Z,3.38
2022-08-30T04:03:08.379Z,3.13
2022-08-30T04:04:16.291Z,3.15
2022-08-30T04:05:22.820Z,3.30
2022-08-30T04:06:31.114Z,3.92
2022-08-30T04:07:41.226Z,3.38
2022-08-30T04:08:48.606Z,3.97
2022-08-30T04:09:54.712Z,3.78
2022-08-30T04:11:00.645Z,3.03
2022-08-30T04:12:08.332Z,4.05
2022-08-30T04:13:13.356Z,3.47
2022-08-30T04:14:22.028Z,4.70
2022-08-30T04:15:26.976Z,3.33
2022-08-30T04:16:31.279Z,3.75
2022-08-30T04:17:36.687Z,3.75
2022-08-30T04:18:42.923Z,3.85
2022-08-30T04:19:50.918Z,4.43
2022-08-30T04:21:01.514Z,3.92
2022-08-30T04:22:06.290Z,3.47
2022-08-30T04:23:12.658Z,3.97
2022-08-30T04:24:17.069Z,4.40
2022-08-30T04:25:25.774Z,3.58
2022-08-30T04:26:30.651Z,3.70
2022-08-30T04:27:36.720Z,3.83
2022-08-30T04:28:40.965Z,3.55
2022-08-30T04:29:47.404Z,3.67
2022-08-30T04:30:54.586Z,3.72
2022-08-30T04:31:59.055Z,4.70
2022-08-30T04:33:08.286Z,3.92
2022-08-30T04:34:17.625Z,3.90
2022-08-30T04:35:24.406Z,3.22
2022-08-30T04:36:29.567Z,3.63
2022-08-30T04:37:39.706Z,3.38
2022-08-30T04:38:44.184Z,3.28
2022-08-30T04:39:51.496Z,3.15
2022-08-30T04:41:00.451Z,3.53
2022-08-30T04:42:07.305Z,3.42
2022-08-30T04:43:13.616Z,3.78
2022-08-30T04:44:19.266Z,3.38
2022-08-30T04:45:27.633Z,3.45
2022-08-30T04:46:32.507Z,2.80
2022-08-30T04:47:40.852Z,3.33
2022-08-30T04:48:46.735Z,2.95
2022-08-30T04:49:52.284Z,3.03
2022-08-30T04:50:56.769Z,2.80
2022-08-30T04:52:01.866Z,3.33
2022-08-30T04:53:06.629Z,4.05
2022-08-30T04:54:12.832Z,2.80
2022-08-30T04:55:20.274Z,4.15
2022-08-30T04:56:28.717Z,3.58
2022-08-30T04:57:33.596Z,3.42
2022-08-30T04:58:40.151Z,3.15
2022-08-30T04:59:45.090Z,2.65
2022-08-30T05:00:53.447Z,4.13
2022-08-30T05:01:57.978Z,3.30
2022-08-30T05:03:02.716Z,3.40
2022-08-30T05:04:13.950Z,3.03
2022-08-30T05:05:38.557Z,3.35
2022-08-30T05:06:45.794Z,3.25
2022-08-30T05:07:52.252Z,2.83
2022-08-30T05:08:56.802Z,3.53
2022-08-30T05:10:02.281Z,3.53
2022-08-30T05:11:14.380Z,3.25
2022-08-30T05:12:21.566Z,3.70
2022-08-30T05:13:35.552Z,4.25
2022-08-30T05:14:41.399Z,3.42
2022-08-30T05:15:48.239Z,4.15
2022-08-30T05:16:56.808Z,3.60
2022-08-30T05:18:05.797Z,3.70
2022-08-30T05:19:10.743Z,3.10
2022-08-30T05:20:16.554Z,2.97
2022-08-30T05:21:28.365Z,3.63
2022-08-30T05:22:32.525Z,3.22
2022-08-30T05:23:39.497Z,3.80
2022-08-30T05:24:44.136Z,3.25
2022-08-30T05:25:48.426Z,3.63
2022-08-30T05:26:55.521Z,3.60
2022-08-30T05:28:01.445Z,2.97
2022-08-30T05:29:09.932Z,3.78
2022-08-30T05:30:22.875Z,12.82
2022-08-30T05:31:40.269Z,6.22
2022-08-30T05:32:48.005Z,3.75
2022-08-30T05:33:55.256Z,6.72
2022-08-30T05:35:00.305Z,4.43
2022-08-30T05:36:12.453Z,3.92
2022-08-30T05:37:17.106Z,4.25
2022-08-30T05:38:21.704Z,3.53
2022-08-30T05:39:46.944Z,4.32
2022-08-30T05:40:55.135Z,3.05
2022-08-30T05:42:00.735Z,3.70
2022-08-30T05:43:07.952Z,2.97
2022-08-30T05:44:12.798Z,2.33
2022-08-30T05:45:17.973Z,3.45
2022-08-30T05:46:23.826Z,3.50
2022-08-30T05:47:30.889Z,3.13
2022-08-30T05:48:36.611Z,3.55
2022-08-30T05:49:41.946Z,3.45
2022-08-30T05:50:48.126Z,2.65
2022-08-30T05:51:52.857Z,3.85
2022-08-30T05:52:57.631Z,3.60
2022-08-30T05:54:02.149Z,2.78
2022-08-30T05:55:10.039Z,3.20
2022-08-30T05:56:18.240Z,2.42
2022-08-30T05:57:23.984Z,2.33
2022-08-30T05:58:30.050Z,4.10
2022-08-30T05:59:37.629Z,2.60
2022-08-30T06:00:42.442Z,2.80
2022-08-30T06:01:50.176Z,2.70
2022-08-30T06:02:57.342Z,3.40
2022-08-30T06:04:12.707Z,2.85
2022-08-30T06:05:17.672Z,2.80
2022-08-30T06:06:25.186Z,2.80
2022-08-30T06:07:32.585Z,3.22
2022-08-30T06:08:49.259Z,2.85
2022-08-30T06:09:58.104Z,3.15
2022-08-30T06:11:03.030Z,2.80
2022-08-30T06:12:08.602Z,3.22
2022-08-30T06:13:16.289Z,2.60
2022-08-30T06:14:27.016Z,2.97
2022-08-30T06:15:34.818Z,2.67
2022-08-30T06:16:41.682Z,2.60
2022-08-30T06:17:49.629Z,2.70
2022-08-30T06:18:57.306Z,3.00
2022-08-30T06:20:06.542Z,2.40
2022-08-30T06:21:27.197Z,2.75
2022-08-30T06:22:34.631Z,3.13
2022-08-30T06:23:38.673Z,2.10
2022-08-30T06:24:57.107Z,3.33
2022-08-30T06:26:08.469Z,2.47
2022-08-30T06:27:16.062Z,2.42
2022-08-30T06:28:21.051Z,2.85
2022-08-30T06:29:29.046Z,2.83
2022-08-30T06:30:34.722Z,2.88
2022-08-30T06:31:57.943Z,2.63
2022-08-30T06:33:04.588Z,3.55
2022-08-30T06:34:09.155Z,2.67
2022-08-30T06:35:14.521Z,2.25
2022-08-30T06:36:26.984Z,2.60
2022-08-30T06:37:33.794Z,2.15
2022-08-30T06:38:41.420Z,2.75
2022-08-30T06:39:46.042Z,2.60
2022-08-30T06:40:54.569Z,2.35
2022-08-30T06:41:58.935Z,2.70
2022-08-30T06:43:03.740Z,2.05
2022-08-30T06:44:12.207Z,3.20
2022-08-30T06:45:16.967Z,2.17
2022-08-30T06:46:30.141Z,2.17
2022-08-30T06:47:35.240Z,2.53
2022-08-30T06:48:45.146Z,2.55
2022-08-30T06:49:52.279Z,2.92
2022-08-30T06:50:59.503Z,2.88
2022-08-30T06:52:12.908Z,3.50
2022-08-30T06:53:17.691Z,2.88
2022-08-30T06:54:22.206Z,2.67
2022-08-30T06:55:27.983Z,2.35
2022-08-30T06:56:36.919Z,2.97
2022-08-30T06:57:46.005Z,2.25
2022-08-30T06:58:52.881Z,2.75
2022-08-30T06:59:58.644Z,2.30
2022-08-30T07:01:04.618Z,3.22
2022-08-30T07:02:09.879Z,2.55
2022-08-30T07:03:17.479Z,2.25
2022-08-30T07:04:22.935Z,2.90
2022-08-30T07:05:29.987Z,2.33
2022-08-30T07:06:41.215Z,2.17
2022-08-30T07:07:48.587Z,2.22
2022-08-30T07:08:56.637Z,2.50
2022-08-30T07:10:08.204Z,3.40
2022-08-30T07:11:17.747Z,2.63
2022-08-30T07:12:24.984Z,2.40
2022-08-30T07:13:33.038Z,2.40
2022-08-30T07:14:38.996Z,2.95
2022-08-30T07:15:45.573Z,2.72
2022-08-30T07:16:52.179Z,2.60
2022-08-30T07:18:15.483Z,2.67
2022-08-30T07:19:23.697Z,2.67
2022-08-30T07:20:40.532Z,2.63
2022-08-30T07:21:46.718Z,1.83
2022-08-30T07:22:54.770Z,2.22
2022-08-30T07:24:01.735Z,3.05
2022-08-30T07:25:06.216Z,2.03
2022-08-30T07:26:15.572Z,2.72
2022-08-30T07:27:20.112Z,2.72
2022-08-30T07:28:25.232Z,2.58
2022-08-30T07:29:30.117Z,2.30
2022-08-30T07:30:39.121Z,2.28
2022-08-30T07:31:46.512Z,2.63
2022-08-30T07:32:51.223Z,2.60
2022-08-30T07:34:00.359Z,2.63
2022-08-30T07:35:06.210Z,2.55
2022-08-30T07:36:12.565Z,2.55
2022-08-30T07:37:18.258Z,2.45
2022-08-30T07:38:26.122Z,2.30
2022-08-30T07:39:41.643Z,2.38
2022-08-30T07:40:50.465Z,2.70
2022-08-30T07:42:00.911Z,2.35
2022-08-30T07:43:05.905Z,2.90
2022-08-30T07:44:14.778Z,2.17
2022-08-30T07:45:20.407Z,2.35
2022-08-30T07:46:27.214Z,2.10
2022-08-30T07:47:33.617Z,2.30
2022-08-30T07:48:39.379Z,2.70
2022-08-30T07:49:44.806Z,2.08
2022-08-30T07:50:53.644Z,2.42
2022-08-30T07:52:01.196Z,2.47
2022-08-30T07:53:17.498Z,2.33
2022-08-30T07:54:26.602Z,2.05
2022-08-30T07:55:34.323Z,2.72
2022-08-30T07:56:43.114Z,2.60
2022-08-30T07:57:48.273Z,2.03
2022-08-30T07:58:54.312Z,1.55
2022-08-30T08:00:03.748Z,2.13
2022-08-30T08:01:13.546Z,2.17
2022-08-30T08:02:19.882Z,1.95
2022-08-30T08:03:36.011Z,2.50
2022-08-30T08:04:48.009Z,2.67
2022-08-30T08:05:59.613Z,2.17
2022-08-30T08:07:10.666Z,1.90
2022-08-30T08:08:21.818Z,2.33
2022-08-30T08:09:27.126Z,2.15
2022-08-30T08:10:31.877Z,2.20
2022-08-30T08:11:37.568Z,2.00
2022-08-30T08:12:42.479Z,2.55
2022-08-30T08:13:53.123Z,2.17
2022-08-30T08:15:04.139Z,1.95
2022-08-30T08:16:13.033Z,2.25
2022-08-30T08:17:22.985Z,2.58
2022-08-30T08:18:30.110Z,2.83
2022-08-30T08:19:34.850Z,2.25
2022-08-30T08:20:39.993Z,2.25
2022-08-30T08:21:50.400Z,2.13
2022-08-30T08:23:01.855Z,1.88
2022-08-30T08:24:09.016Z,1.90
2022-08-30T08:25:15.316Z,2.05
2022-08-30T08:26:21.842Z,1.98
2022-08-30T08:27:26.111Z,2.60
2022-08-30T08:28:33.712Z,1.88
2022-08-30T08:29:42.250Z,1.80
2022-08-30T08:30:49.919Z,2.35
2022-08-30T08:31:59.793Z,2.08
2022-08-30T08:33:17.549Z,2.33
2022-08-30T08:34:31.300Z,1.88
2022-08-30T08:35:36.959Z,2.00
2022-08-30T08:36:43.485Z,2.05
2022-08-30T08:37:47.772Z,2.03
2022-08-30T08:38:53.356Z,2.38
2022-08-30T08:40:03.464Z,1.52
2022-08-30T08:41:52.171Z,2.03
2022-08-30T08:43:15.228Z,1.88
2022-08-30T08:44:44.086Z,1.52
2022-08-30T08:46:02.445Z,1.48
2022-08-30T08:47:40.018Z,1.95
2022-08-30T08:49:00.803Z,2.10
2022-08-30T08:50:17.446Z,1.88
2022-08-30T08:51:54.372Z,2.10
2022-08-30T08:53:50.712Z,2.08
2022-08-30T08:55:26.241Z,1.60
2022-08-30T08:56:30.814Z,1.95
2022-08-30T08:57:38.348Z,2.70
2022-08-30T08:58:56.758Z,2.40
2022-08-30T09:00:02.128Z,1.70
2022-08-30T09:01:10.445Z,2.38
2022-08-30T09:05:03.825Z,1.70
2022-08-30T09:07:01.197Z,2.25
2022-08-30T09:08:18.142Z,1.58
2022-08-30T09:09:33.113Z,2.30
2022-08-30T09:42:22.996Z,2.60
2022-08-30T09:43:35.056Z,2.17
2022-08-30T09:44:39.737Z,2.80
2022-08-30T09:45:49.624Z,1.90
2022-08-30T09:47:00.599Z,2.13
2022-08-30T09:48:26.966Z,2.53
2022-08-30T09:49:39.795Z,2.15
2022-08-30T09:50:46.440Z,2.50
2022-08-30T09:52:24.819Z,1.73
2022-08-30T09:53:42.455Z,1.90
2022-08-30T09:55:17.949Z,1.75
2022-08-30T09:57:01.091Z,2.53
2022-08-30T09:58:20.513Z,1.77
2022-08-30T09:59:59.812Z,2.17
2022-08-30T10:45:14.041Z,2.10
2022-08-30T10:46:33.782Z,1.92
2022-08-30T10:48:49.834Z,2.80
2022-08-30T10:50:24.501Z,1.73
2022-08-30T10:51:45.455Z,2.00
2022-08-30T10:53:07.475Z,1.75
2022-08-30T10:54:35.285Z,1.77
2022-08-30T10:55:56.793Z,1.63
2022-08-30T10:57:01.134Z,1.73
2022-08-30T10:58:07.080Z,1.65
2022-08-30T10:59:11.884Z,1.73
2022-08-30T11:00:41.507Z,1.80
2022-08-30T11:02:45.345Z,1.65
2022-08-30T11:04:32.181Z,1.80
2022-08-30T11:05:56.894Z,2.03
2022-08-30T11:07:41.960Z,2.40
2022-08-30T11:09:07.225Z,1.92
2022-08-30T11:10:28.637Z,2.28
2022-08-30T11:11:56.308Z,1.73
2022-08-30T11:13:16.231Z,1.70
2022-08-30T11:14:25.531Z,1.48
2022-08-30T11:15:36.860Z,2.13
2022-08-30T11:16:46.250Z,2.00
2022-08-30T11:18:26.019Z,2.00
2022-08-30T11:19:40.863Z,2.30
2022-08-30T11:20:52.179Z,1.63
2022-08-30T11:22:27.452Z,2.13
2022-08-30T11:23:34.287Z,2.58
2022-08-30T11:25:10.027Z,1.75
2022-08-30T11:26:45.918Z,2.15
2022-08-30T11:59:26.936Z,1.58
2022-08-30T12:00:44.201Z,1.50
2022-08-30T12:01:58.908Z,2.08
2022-08-30T12:03:30.118Z,1.70
2022-08-30T12:04:47.440Z,2.25
2022-08-30T12:06:00.161Z,1.40
2022-08-30T12:07:08.868Z,1.25
2022-08-30T12:08:35.212Z,1.40
2022-08-30T12:09:45.871Z,1.30
2022-08-30T12:11:03.024Z,1.40
2022-08-30T12:12:12.662Z,1.95
2022-08-30T12:13:34.499Z,1.35
2022-08-30T12:14:57.614Z,1.52
2022-08-30T12:16:25.162Z,1.33
2022-08-30T12:18:15.348Z,1.33
2022-08-30T12:19:21.715Z,1.55
2022-08-30T12:20:38.030Z,1.45
2022-08-30T12:21:44.847Z,1.20
2022-08-30T12:22:50.092Z,1.40
2022-08-30T12:24:07.730Z,1.10
2022-08-30T12:25:38.332Z,1.30
2022-08-30T12:26:45.408Z,1.35
2022-08-30T12:27:50.175Z,1.42
2022-08-30T12:29:11.122Z,1.73
2022-08-30T12:30:14.681Z,1.60
2022-08-30T12:31:27.154Z,2.35
2022-08-30T12:32:31.384Z,1.60
2022-08-30T12:33:43.460Z,1.75
2022-08-30T12:34:46.889Z,1.88
2022-08-30T12:35:50.378Z,2.03
2022-08-30T12:37:04.860Z,1.60
2022-08-30T12:38:19.284Z,1.85
2022-08-30T12:39:44.217Z,1.33
2022-08-30T12:41:00.304Z,1.35
2022-08-30T12:42:49.825Z,1.88
2022-08-30T12:43:53.476Z,2.13
2022-08-30T12:45:03.239Z,1.70
2022-08-30T12:46:15.256Z,1.52
2022-08-30T12:47:39.302Z,1.35
2022-08-30T12:48:45.274Z,1.35
2022-08-30T12:49:50.828Z,1.52
2022-08-30T12:51:01.135Z,1.95
2022-08-30T12:52:29.411Z,1.60
2022-08-30T12:53:42.861Z,1.50
2022-08-30T12:54:47.539Z,1.75
2022-08-30T12:56:06.984Z,1.55
2022-08-30T12:57:32.349Z,1.42
2022-08-30T12:58:45.945Z,1.70
2022-08-30T12:59:59.235Z,1.73
2022-08-30T13:01:27.803Z,1.55
2022-08-30T13:02:54.918Z,2.17
2022-08-30T13:04:13.344Z,1.73
2022-08-30T13:05:44.561Z,1.58
2022-08-30T13:06:56.260Z,1.55
2022-08-30T13:08:27.673Z,1.15
2022-08-30T13:09:46.115Z,1.50
2022-08-30T13:11:11.082Z,1.10
2022-08-30T13:12:26.747Z,1.27
2022-08-30T13:13:52.259Z,1.35
2022-08-30T13:15:29.610Z,1.65
2022-08-30T13:16:41.257Z,1.10
2022-08-30T13:17:48.725Z,1.30
2022-08-30T13:19:20.218Z,1.15
2022-08-30T13:20:26.296Z,1.10
2022-08-30T13:21:35.564Z,1.20
2022-08-30T13:22:42.237Z,1.10
2022-08-30T13:23:45.715Z,0.88
2022-08-30T13:24:53.363Z,1.20
2022-08-30T13:25:57.172Z,1.40
2022-08-30T13:27:12.011Z,1.42
2022-08-30T13:28:15.719Z,1.13
2022-08-30T13:29:27.592Z,0.90
2022-08-30T13:30:32.412Z,1.00
2022-08-30T13:31:37.388Z,2.10
2022-08-30T13:32:41.831Z,1.23
2022-08-30T13:33:46.499Z,1.30
2022-08-30T13:34:50.182Z,1.30
2022-08-30T13:35:53.963Z,1.42
2022-08-30T13:37:00.079Z,1.10
2022-08-30T13:38:04.301Z,1.05
2022-08-30T13:39:08.013Z,1.30
2022-08-30T13:40:15.348Z,1.00
2022-08-30T13:41:20.846Z,1.13
2022-08-30T13:42:32.254Z,1.20
2022-08-30T13:44:09.490Z,1.15
2022-08-30T13:44:59.818Z,1.00
2022-08-30T13:46:03.516Z,1.23
2022-08-30T13:48:33.936Z,1.13
2022-08-30T13:49:46.611Z,0.98
2022-08-30T13:50:50.351Z,1.33
2022-08-30T13:52:19.315Z,1.00
2022-08-30T13:53:51.958Z,1.20
2022-08-30T13:54:41.618Z,1.15
2022-08-30T13:55:45.464Z,0.95
2022-08-30T13:56:55.104Z,1.42
2022-08-30T13:57:58.568Z,1.00
2022-08-30T13:59:03.632Z,1.02
2022-08-30T14:00:18.022Z,1.55
2022-08-30T14:01:22.045Z,0.82
2022-08-30T14:02:26.011Z,0.90
2022-08-30T14:03:29.975Z,1.20
2022-08-30T14:04:34.119Z,1.38
2022-08-30T14:05:49.457Z,1.30
2022-08-30T14:09:53.067Z,1.27
2022-08-30T14:10:58.531Z,1.25
2022-08-30T14:12:02.706Z,1.20
2022-08-30T14:13:18.585Z,1.35
2022-08-30T14:14:39.302Z,1.13
2022-08-30T14:15:47.148Z,1.50
2022-08-30T14:16:53.308Z,1.65
2022-08-30T14:17:56.998Z,1.25
2022-08-30T14:19:04.899Z,1.60
2022-08-30T14:20:15.012Z,1.38
2022-08-30T14:21:24.792Z,1.20
2022-08-30T14:22:28.595Z,1.55
2022-08-30T14:23:32.117Z,1.65
2022-08-30T14:24:35.957Z,1.42
2022-08-30T14:25:41.010Z,1.50
2022-08-30T14:26:51.288Z,1.67
2022-08-30T14:27:56.795Z,1.20
2022-08-30T14:29:10.333Z,1.33
2022-08-30T14:30:16.771Z,1.15
2022-08-30T14:31:24.947Z,1.25
2022-08-30T14:32:29.182Z,1.67
2022-08-30T14:33:33.054Z,1.15
2022-08-30T14:34:36.950Z,1.85
2022-08-30T14:35:40.479Z,1.48
2022-08-30T14:36:46.581Z,1.42
2022-08-30T14:37:51.553Z,1.13
2022-08-30T14:38:55.180Z,1.27
2022-08-30T14:39:59.109Z,1.35
2022-08-30T14:41:05.551Z,1.58
2022-08-30T14:42:11.979Z,1.17
2022-08-30T14:43:22.614Z,1.23
2022-08-30T14:44:27.824Z,1.40
2022-08-30T14:45:31.457Z,1.48
2022-08-30T14:46:35.317Z,1.08
2022-08-30T14:47:39.352Z,1.45
2022-08-30T14:48:43.226Z,1.15
2022-08-30T14:49:47.356Z,1.35
2022-08-30T14:50:51.297Z,1.75
2022-08-30T14:51:56.481Z,1.45
2022-08-30T14:53:00.750Z,1.10
2022-08-30T14:54:04.753Z,0.90
2022-08-30T14:55:11.806Z,1.35
2022-08-30T14:56:19.989Z,1.35
2022-08-30T14:57:23.682Z,1.38
2022-08-30T14:58:27.655Z,1.10
2022-08-30T14:59:31.349Z,1.90
2022-08-30T15:00:34.972Z,1.45
2022-08-30T15:01:41.549Z,1.13
2022-08-30T15:02:45.486Z,1.25
2022-08-30T15:03:49.544Z,1.25
2022-08-30T15:04:54.834Z,1.98
2022-08-30T15:05:58.309Z,1.48
2022-08-30T15:07:02.317Z,0.88
2022-08-30T15:08:07.398Z,1.02
2022-08-30T15:09:14.968Z,1.30
2022-08-30T15:10:21.281Z,1.10
2022-08-30T15:11:26.237Z,1.23
2022-08-30T15:12:30.163Z,1.10
2022-08-30T15:13:33.906Z,0.98
2022-08-30T15:14:37.848Z,0.90
2022-08-30T15:15:43.631Z,1.17
2022-08-30T15:16:47.431Z,1.05
2022-08-30T15:17:52.780Z,1.10
2022-08-30T15:19:02.907Z,1.10
2022-08-30T15:20:10.373Z,1.20
2022-08-30T15:21:15.153Z,1.20
2022-08-30T15:22:19.142Z,1.50
2022-08-30T15:23:24.983Z,1.17
2022-08-30T15:24:29.997Z,1.10
2022-08-30T15:25:33.798Z,1.17
2022-08-30T15:26:41.717Z,1.15
2022-08-30T15:27:46.920Z,0.90
2022-08-30T15:28:54.282Z,1.17
2022-08-30T15:29:57.768Z,1.20
2022-08-30T15:31:06.289Z,1.10
2022-08-30T15:32:12.010Z,1.25
2022-08-30T15:33:15.653Z,1.50
2022-08-30T15:34:26.241Z,1.33
2022-08-30T15:35:32.343Z,1.13
2022-08-30T15:36:37.021Z,1.33
2022-08-30T15:37:40.683Z,1.40
2022-08-30T15:38:44.241Z,1.40
2022-08-30T15:39:50.958Z,1.50
2022-08-30T15:40:54.564Z,1.45
2022-08-30T15:42:01.214Z,1.40
2022-08-30T15:43:05.554Z,1.00
2022-08-30T15:44:09.862Z,0.95
2022-08-30T15:45:15.235Z,1.33
2022-08-30T15:46:38.052Z,1.33
2022-08-30T15:47:41.882Z,1.10
2022-08-30T15:48:47.383Z,1.10
2022-08-30T15:50:02.153Z,1.30
2022-08-30T15:51:07.686Z,1.10
2022-08-30T15:52:12.921Z,1.27
2022-08-30T15:53:16.865Z,1.00
2022-08-30T15:54:23.904Z,1.42
2022-08-30T15:55:27.932Z,1.23
2022-08-30T15:56:33.600Z,1.17
2022-08-30T15:57:37.060Z,1.20
2022-08-30T15:58:42.365Z,1.42
2022-08-30T15:59:46.111Z,1.23
2022-08-30T16:00:49.618Z,1.20
2022-08-30T16:01:53.486Z,1.23
2022-08-30T16:02:57.064Z,1.23
2022-08-30T16:04:02.139Z,1.20
2022-08-30T16:05:06.715Z,1.73
2022-08-30T16:06:23.805Z,1.02
2022-08-30T16:07:27.704Z,1.27
2022-08-30T16:08:31.276Z,1.23
2022-08-30T16:09:38.367Z,0.95
2022-08-30T16:10:43.256Z,1.35
2022-08-30T16:11:48.270Z,1.30
2022-08-30T16:12:52.063Z,0.98
2022-08-30T16:13:57.595Z,1.02
2022-08-30T16:15:01.849Z,1.33
2022-08-30T16:16:09.705Z,1.02
2022-08-30T16:17:13.403Z,1.05
2022-08-30T16:18:16.995Z,0.98
2022-08-30T16:19:21.109Z,1.02
2022-08-30T16:20:26.074Z,1.25
2022-08-30T16:21:33.142Z,0.90
2022-08-30T16:22:36.794Z,1.30
2022-08-30T16:23:43.528Z,1.17
2022-08-30T16:24:47.081Z,1.10
2022-08-30T16:25:51.551Z,1.42
2022-08-30T16:26:55.644Z,1.27
2022-08-30T16:27:59.161Z,1.48
2022-08-30T16:29:07.215Z,1.20
2022-08-30T16:30:13.766Z,1.25
2022-08-30T16:31:19.466Z,1.20
2022-08-30T16:32:23.228Z,1.30
2022-08-30T16:33:27.807Z,1.00
2022-08-30T16:34:31.608Z,0.90
2022-08-30T16:35:37.088Z,1.10
2022-08-30T16:36:42.456Z,1.00
2022-08-30T16:37:46.507Z,1.13
2022-08-30T16:38:53.509Z,1.20
2022-08-30T16:39:59.708Z,0.80
2022-08-30T16:41:09.796Z,1.25
2022-08-30T16:42:21.033Z,1.00
2022-08-30T16:43:25.290Z,1.00
2022-08-30T16:44:29.965Z,1.15
2022-08-30T16:45:34.708Z,1.00
2022-08-30T16:46:41.275Z,1.05
2022-08-30T16:47:45.618Z,1.58
2022-08-30T16:48:49.731Z,1.10
2022-08-30T16:49:53.578Z,0.90
2022-08-30T16:51:17.802Z,1.35
2022-08-30T16:52:21.633Z,1.23
2022-08-30T16:53:28.139Z,1.30
2022-08-30T16:54:32.175Z,0.93
2022-08-30T16:55:39.021Z,1.40
2022-08-30T16:56:44.113Z,1.40
2022-08-30T16:57:48.666Z,1.15
2022-08-30T16:59:02.212Z,0.93
2022-08-30T17:00:13.338Z,1.27
2022-08-30T17:01:22.437Z,1.00
2022-08-30T17:02:26.563Z,1.50
2022-08-30T17:03:31.797Z,1.05
2022-08-30T17:04:35.862Z,2.05
2022-08-30T17:05:40.112Z,1.10
2022-08-30T17:06:55.371Z,1.42
2022-08-30T17:07:59.475Z,1.10
2022-08-30T17:09:05.217Z,1.48
2022-08-30T17:10:09.532Z,1.38
2022-08-30T17:11:18.498Z,1.38
2022-08-30T17:12:22.344Z,1.40
2022-08-30T17:13:26.241Z,1.45
2022-08-30T17:14:29.798Z,1.58
2022-08-30T17:15:33.983Z,1.27
2022-08-30T17:16:38.957Z,1.38
2022-08-30T17:17:45.124Z,1.13
2022-08-30T17:18:48.718Z,1.30
2022-08-30T17:19:52.262Z,1.20